Time;durP1;ratioP1;P1;durP2;ratioP2;P2;SDS_P1;SDS_P2;PMS_P1;PMS_P2;Temp;Humidity;BMP_temperature;BMP_pressure;BME280_temperature;BME280_humidity;BME280_pressure;Samples;Min_cycle;Max_cycle;Signal;HPM_P1;HPM_P2
2021/06/29 17:43:41;;;;;;;39.75;10.23;;;;;;;;;;5075106;27;20650;-92
2021/06/29 17:46:07;;;;;;;25.92;9.07;;;;;;;;;;5073973;28;20068;-91
2021/06/29 17:48:33;;;;;;;22.95;9.30;;;;;;;;;;5075222;28;20021;-93
2021/06/29 17:50:59;;;;;;;39.05;22.10;;;;;;;;;;5074261;28;20082;-93
2021/06/29 17:53:26;;;;;;;79.55;30.65;;;;;;;;;;5074784;28;20025;-88
2021/06/29 17:55:52;;;;;;;35.38;18.92;;;;;;;;;;5074455;28;20021;-88
2021/06/29 17:58:18;;;;;;;42.22;19.00;;;;;;;;;;5074835;28;20050;-88
2021/06/29 18:00:46;;;;;;;53.22;22.52;;;;;;;;;;5074943;28;20020;-88
2021/06/29 18:03:12;;;;;;;40.10;19.40;;;;;;;;;;5073593;28;20121;-88
2021/06/29 18:05:38;;;;;;;43.83;16.20;;;;;;;;;;5074649;28;20032;-88
2021/06/29 18:08:04;;;;;;;35.78;13.95;;;;;;;;;;5073991;28;20123;-88
2021/06/29 18:10:30;;;;;;;33.17;13.18;;;;;;;;;;5074446;28;20036;-88
2021/06/29 18:12:56;;;;;;;34.70;13.27;;;;;;;;;;5074668;28;20024;-89
2021/06/29 18:15:23;;;;;;;29.20;11.45;;;;;;;;;;5074073;28;20040;-89
2021/06/29 18:17:50;;;;;;;24.30;10.05;;;;;;;;;;5073735;28;20426;-89
2021/06/29 18:20:16;;;;;;;29.73;10.35;;;;;;;;;;5074739;28;20033;-88
2021/06/29 18:22:42;;;;;;;35.92;12.00;;;;;;;;;;5073538;28;20029;-89
2021/06/29 18:25:08;;;;;;;25.52;9.95;;;;;;;;;;5074014;28;20031;-87
2021/06/29 18:27:35;;;;;;;27.00;10.63;;;;;;;;;;5074371;28;20013;-89
2021/06/29 18:30:02;;;;;;;22.48;9.73;;;;;;;;;;5074162;28;20021;-89
2021/06/29 18:32:28;;;;;;;16.67;9.65;;;;;;;;;;5074332;28;20075;-89
2021/06/29 18:34:54;;;;;;;21.17;9.45;;;;;;;;;;5073900;28;20028;-89
2021/06/29 18:37:20;;;;;;;26.85;15.07;;;;;;;;;;5074843;28;20032;-89
2021/06/29 18:39:46;;;;;;;51.70;29.35;;;;;;;;;;5074875;28;20075;-88
2021/06/29 18:42:12;;;;;;;56.20;31.13;;;;;;;;;;5087380;28;20105;-88
2021/06/29 18:47:41;;;;;;;70.05;43.58;;;;;;;;;;5074155;28;20027;-88
2021/06/29 18:50:08;;;;;;;74.05;44.25;;;;;;;;;;5073748;28;20032;-89
2021/06/29 18:52:42;;;;;;;59.28;39.10;;;;;;;;;;5073837;28;20021;-88
2021/06/29 18:55:16;;;;;;;64.18;36.50;;;;;;;;;;5058945;28;20039;-88
2021/06/29 18:57:43;;;;;;;92.13;43.88;;;;;;;;;;5060654;28;20025;-89
2021/06/29 19:00:11;;;;;;;109.53;50.75;;;;;;;;;;5060405;28;20045;-89
2021/06/29 19:02:37;;;;;;;123.70;53.17;;;;;;;;;;5060547;28;20029;-88
2021/06/29 19:05:05;;;;;;;113.07;47.28;;;;;;;;;;5060453;28;20037;-88
2021/06/29 19:07:31;;;;;;;94.43;41.33;;;;;;;;;;5060372;28;20029;-89
2021/06/29 19:09:57;;;;;;;58.30;30.35;;;;;;;;;;5059918;28;20021;-89
2021/06/29 19:12:24;;;;;;;44.08;21.38;;;;;;;;;;5060023;28;20028;-89
2021/06/29 19:14:50;;;;;;;44.63;22.33;;;;;;;;;;5059880;28;20025;-89
2021/06/29 19:17:16;;;;;;;45.50;22.60;;;;;;;;;;5060143;28;20031;-87
2021/06/29 19:19:42;;;;;;;45.58;20.42;;;;;;;;;;5060218;28;20033;-88
2021/06/29 19:22:09;;;;;;;43.25;21.02;;;;;;;;;;5060106;28;20021;-89
2021/06/29 19:24:35;;;;;;;58.00;38.78;;;;;;;;;;5059682;28;20056;-88
2021/06/29 19:27:01;;;;;;;42.50;24.35;;;;;;;;;;5058802;28;20029;-90
2021/06/29 19:29:28;;;;;;;50.08;32.53;;;;;;;;;;5058627;28;20021;-88
2021/06/29 19:31:54;;;;;;;69.75;41.95;;;;;;;;;;5059464;28;20070;-86
2021/06/29 19:34:20;;;;;;;50.97;30.90;;;;;;;;;;5059531;28;20055;-88
2021/06/29 19:36:46;;;;;;;36.92;20.20;;;;;;;;;;5059854;28;20025;-87
2021/06/29 19:39:13;;;;;;;50.17;26.30;;;;;;;;;;5058731;28;20115;-89
2021/06/29 19:41:39;;;;;;;46.83;23.13;;;;;;;;;;5058420;28;20124;-88
2021/06/29 19:44:05;;;;;;;40.67;20.00;;;;;;;;;;5058403;28;20032;-87
2021/06/29 19:46:31;;;;;;;68.65;40.05;;;;;;;;;;5058713;28;20025;-84
2021/06/29 19:48:57;;;;;;;59.08;31.13;;;;;;;;;;5058752;28;20092;-87
2021/06/29 19:51:24;;;;;;;47.85;18.38;;;;;;;;;;5058979;28;20074;-88
2021/06/29 19:53:55;;;;;;;46.60;24.98;;;;;;;;;;5059364;28;20049;-86
2021/06/29 19:56:27;;;;;;;45.03;26.42;;;;;;;;;;5059358;28;20021;-87
2021/06/29 19:58:54;;;;;;;66.28;38.13;;;;;;;;;;5059069;28;20020;-89
2021/06/29 20:01:22;;;;;;;100.32;67.88;;;;;;;;;;5059201;28;20025;-88
2021/06/29 20:03:48;;;;;;;59.20;34.20;;;;;;;;;;5058989;28;20028;-89
2021/06/29 20:06:14;;;;;;;60.88;36.22;;;;;;;;;;5058314;28;20048;-88
2021/06/29 20:08:41;;;;;;;70.53;41.53;;;;;;;;;;5058045;28;20021;-86
2021/06/29 20:11:07;;;;;;;107.70;76.93;;;;;;;;;;5058973;28;20021;-87
2021/06/29 20:13:34;;;;;;;32.10;16.30;;;;;;;;;;5058897;28;20021;-86
2021/06/29 20:16:00;;;;;;;32.08;17.88;;;;;;;;;;5058205;28;20323;-86
2021/06/29 20:18:26;;;;;;;42.17;21.83;;;;;;;;;;5058694;28;20029;-86
2021/06/29 20:20:52;;;;;;;30.08;16.90;;;;;;;;;;5058080;28;20060;-89
2021/06/29 20:23:19;;;;;;;36.78;21.02;;;;;;;;;;5057647;28;20509;-88
2021/06/29 20:25:45;;;;;;;43.55;24.80;;;;;;;;;;5057208;28;20025;-85
2021/06/29 20:28:12;;;;;;;49.85;31.50;;;;;;;;;;5058121;28;20025;-83
2021/06/29 20:30:38;;;;;;;32.83;20.92;;;;;;;;;;5058161;28;20052;-84
2021/06/29 20:33:05;;;;;;;25.05;14.65;;;;;;;;;;5056433;28;20032;-83
2021/06/29 20:35:31;;;;;;;34.88;21.17;;;;;;;;;;5058201;28;20029;-81
2021/06/29 20:37:57;;;;;;;27.90;14.93;;;;;;;;;;5057579;28;20484;-82
2021/06/29 20:40:25;;;;;;;23.02;13.98;;;;;;;;;;5057484;28;20029;-81
2021/06/29 20:42:51;;;;;;;22.38;12.57;;;;;;;;;;5056304;28;20442;-81
2021/06/29 20:45:18;;;;;;;16.13;10.50;;;;;;;;;;5057639;28;20028;-82
2021/06/29 20:47:44;;;;;;;20.45;12.07;;;;;;;;;;5055718;28;20024;-82
2021/06/29 20:50:11;;;;;;;21.50;10.70;;;;;;;;;;5057303;28;20027;-81
2021/06/29 20:52:37;;;;;;;16.15;10.05;;;;;;;;;;5055921;28;20068;-81
2021/06/29 20:55:04;;;;;;;20.75;13.05;;;;;;;;;;5057449;28;20058;-81
2021/06/29 20:57:30;;;;;;;20.02;9.60;;;;;;;;;;5057237;28;20033;-82
2021/06/29 20:59:56;;;;;;;20.73;10.05;;;;;;;;;;5057278;28;20036;-82
2021/06/29 21:02:22;;;;;;;21.65;10.95;;;;;;;;;;5057364;28;20070;-82
2021/06/29 21:04:48;;;;;;;13.77;9.32;;;;;;;;;;5072940;28;20043;-82
2021/06/29 21:07:15;;;;;;;17.42;9.57;;;;;;;;;;5077506;28;20017;-82
2021/06/29 21:09:41;;;;;;;19.17;9.45;;;;;;;;;;5077394;28;20082;-81
2021/06/29 21:12:07;;;;;;;17.13;9.05;;;;;;;;;;5076981;28;20028;-81
2021/06/29 21:14:34;;;;;;;17.92;10.30;;;;;;;;;;5077139;28;20032;-81
2021/06/29 21:17:00;;;;;;;14.15;8.52;;;;;;;;;;5077008;28;20090;-82
2021/06/29 21:19:27;;;;;;;15.25;10.60;;;;;;;;;;5077018;28;20322;-82
2021/06/29 21:21:53;;;;;;;17.83;13.82;;;;;;;;;;5077155;28;20020;-82
2021/06/29 21:24:19;;;;;;;18.90;12.55;;;;;;;;;;5077234;28;20020;-82
2021/06/29 21:26:48;;;;;;;18.20;12.80;;;;;;;;;;5077084;28;20013;-82
2021/06/29 21:29:15;;;;;;;16.63;12.85;;;;;;;;;;5076858;28;20021;-81
2021/06/29 21:31:41;;;;;;;20.75;12.02;;;;;;;;;;5076560;28;20028;-82
2021/06/29 21:34:08;;;;;;;13.98;8.27;;;;;;;;;;5076656;28;20447;-82
2021/06/29 21:36:34;;;;;;;17.33;12.63;;;;;;;;;;5076705;28;20039;-82
2021/06/29 21:39:00;;;;;;;21.55;15.13;;;;;;;;;;5076920;28;20150;-82
2021/06/29 21:41:26;;;;;;;18.73;12.20;;;;;;;;;;5076684;28;20044;-82
2021/06/29 21:43:54;;;;;;;35.78;19.67;;;;;;;;;;5076896;28;20021;-81
2021/06/29 21:46:20;;;;;;;22.52;16.25;;;;;;;;;;5075796;28;20032;-82
2021/06/29 21:48:46;;;;;;;35.00;22.33;;;;;;;;;;5076512;28;20020;-82
2021/06/29 21:51:12;;;;;;;18.80;11.68;;;;;;;;;;5077056;28;20020;-81
2021/06/29 21:53:39;;;;;;;24.73;15.50;;;;;;;;;;5076874;28;20036;-83
2021/06/29 21:56:05;;;;;;;21.05;17.17;;;;;;;;;;5076630;28;20414;-82
2021/06/29 21:58:34;;;;;;;30.08;22.67;;;;;;;;;;5075746;28;20032;-81
2021/06/29 22:01:00;;;;;;;21.60;17.30;;;;;;;;;;5076798;28;20043;-82
2021/06/29 22:03:27;;;;;;;20.30;14.63;;;;;;;;;;5076358;28;20029;-83
2021/06/29 22:05:53;;;;;;;19.85;17.15;;;;;;;;;;5075622;28;20036;-83
2021/06/29 22:08:19;;;;;;;28.35;19.13;;;;;;;;;;5076930;28;20021;-83
2021/06/29 22:10:45;;;;;;;14.65;10.00;;;;;;;;;;5076627;28;20021;-82
2021/06/29 22:13:11;;;;;;;13.77;10.77;;;;;;;;;;5075461;28;20044;-83
2021/06/29 22:15:37;;;;;;;16.02;13.18;;;;;;;;;;5075573;28;20036;-84
2021/06/29 22:18:07;;;;;;;14.70;11.45;;;;;;;;;;5076483;28;20111;-83
2021/06/29 22:20:33;;;;;;;22.67;17.15;;;;;;;;;;5075601;28;20138;-82
2021/06/29 22:23:01;;;;;;;16.00;10.80;;;;;;;;;;5076448;28;20142;-82
2021/06/29 22:25:29;;;;;;;18.55;12.60;;;;;;;;;;5076822;28;20028;-82
2021/06/29 22:27:55;;;;;;;24.80;15.88;;;;;;;;;;5076595;28;20016;-82
2021/06/29 22:30:21;;;;;;;13.82;12.35;;;;;;;;;;5079962;28;20108;-82
2021/06/29 22:32:48;;;;;;;20.30;14.50;;;;;;;;;;5080333;28;20048;-82
2021/06/29 22:35:14;;;;;;;21.77;16.13;;;;;;;;;;5079188;28;20025;-82
2021/06/29 22:37:40;;;;;;;19.35;16.50;;;;;;;;;;5080314;28;20029;-82
2021/06/29 22:40:06;;;;;;;19.48;12.60;;;;;;;;;;5080293;28;20025;-82
2021/06/29 22:42:32;;;;;;;18.25;13.75;;;;;;;;;;5079904;28;20303;-82
2021/06/29 22:44:58;;;;;;;17.83;9.68;;;;;;;;;;5079128;28;20317;-82
2021/06/29 22:47:24;;;;;;;24.98;16.00;;;;;;;;;;5080071;28;20025;-83
2021/06/29 22:49:50;;;;;;;23.40;17.60;;;;;;;;;;5080382;28;20040;-82
2021/06/29 22:52:16;;;;;;;14.35;10.63;;;;;;;;;;5079871;28;20046;-82
2021/06/29 22:54:43;;;;;;;14.07;11.80;;;;;;;;;;5079945;28;20406;-82
2021/06/29 22:57:09;;;;;;;12.52;10.30;;;;;;;;;;5079537;28;20410;-82
2021/06/29 22:59:35;;;;;;;31.83;21.08;;;;;;;;;;5078689;28;20043;-82
2021/06/29 23:02:01;;;;;;;18.05;14.48;;;;;;;;;;5079546;28;20020;-82
2021/06/29 23:04:27;;;;;;;33.60;26.65;;;;;;;;;;5078542;28;20029;-82
2021/06/29 23:06:53;;;;;;;28.55;19.98;;;;;;;;;;5079654;28;20029;-82
2021/06/29 23:09:19;;;;;;;19.77;15.77;;;;;;;;;;5078649;28;20033;-82
2021/06/29 23:11:45;;;;;;;21.90;13.98;;;;;;;;;;5079598;28;20033;-82
2021/06/29 23:14:11;;;;;;;13.93;11.02;;;;;;;;;;5079461;28;20025;-82
2021/06/29 23:16:38;;;;;;;23.20;20.02;;;;;;;;;;5078562;28;20398;-82
2021/06/29 23:19:04;;;;;;;17.75;11.13;;;;;;;;;;5079411;28;20028;-82
2021/06/29 23:21:31;;;;;;;12.70;10.90;;;;;;;;;;5078268;28;20123;-82
2021/06/29 23:23:57;;;;;;;27.17;12.63;;;;;;;;;;5078408;28;20046;-82
2021/06/29 23:26:23;;;;;;;15.18;11.35;;;;;;;;;;5079249;28;20310;-83
2021/06/29 23:28:49;;;;;;;16.73;13.43;;;;;;;;;;5078414;28;20052;-82
2021/06/29 23:31:15;;;;;;;20.65;14.20;;;;;;;;;;5079209;28;20017;-82
2021/06/29 23:33:41;;;;;;;28.02;23.63;;;;;;;;;;5079326;28;20032;-83
2021/06/29 23:36:07;;;;;;;19.00;13.13;;;;;;;;;;5078118;28;20119;-83
2021/06/29 23:38:33;;;;;;;9.82;8.20;;;;;;;;;;5079441;28;20028;-83
2021/06/29 23:41:00;;;;;;;22.35;18.48;;;;;;;;;;5079015;28;20021;-82
2021/06/29 23:43:26;;;;;;;21.05;15.90;;;;;;;;;;5078894;28;20063;-83
2021/06/29 23:45:53;;;;;;;20.23;15.40;;;;;;;;;;5079233;28;20116;-83
2021/06/29 23:48:19;;;;;;;16.17;13.48;;;;;;;;;;5077897;28;20024;-83
2021/06/29 23:50:45;;;;;;;19.30;11.38;;;;;;;;;;5077853;28;20027;-83
2021/06/29 23:53:12;;;;;;;21.10;15.25;;;;;;;;;;5079184;28;20028;-83
2021/06/29 23:55:38;;;;;;;21.38;16.40;;;;;;;;;;5078801;28;20024;-83
2021/06/29 23:58:04;;;;;;;15.05;11.93;;;;;;;;;;5078787;28;20031;-82
